sensor_id;sensor_type;location;lat;lon;timestamp;P1;durP1;ratioP1;P2;durP2;ratioP2
23434;SDS011;11890;45.380;11.028;2024-03-17T00:01:40;69.53;;;45.53;;
23434;SDS011;11890;45.380;11.028;2024-03-17T00:04:07;68.50;;;45.80;;
23434;SDS011;11890;45.380;11.028;2024-03-17T00:06:34;64.95;;;43.08;;
23434;SDS011;11890;45.380;11.028;2024-03-17T00:09:01;63.80;;;43.33;;
23434;SDS011;11890;45.380;11.028;2024-03-17T00:11:32;71.25;;;44.00;;
23434;SDS011;11890;45.380;11.028;2024-03-17T00:14:01;65.68;;;43.25;;
23434;SDS011;11890;45.380;11.028;2024-03-17T00:16:28;65.93;;;43.08;;
23434;SDS011;11890;45.380;11.028;2024-03-17T00:18:55;69.93;;;44.58;;
23434;SDS011;11890;45.380;11.028;2024-03-17T00:21:22;69.25;;;45.08;;
23434;SDS011;11890;45.380;11.028;2024-03-17T00:23:50;67.30;;;44.25;;
23434;SDS011;11890;45.380;11.028;2024-03-17T00:26:16;75.93;;;46.70;;
23434;SDS011;11890;45.380;11.028;2024-03-17T00:28:45;66.85;;;43.92;;
23434;SDS011;11890;45.380;11.028;2024-03-17T00:31:14;69.15;;;43.67;;
23434;SDS011;11890;45.380;11.028;2024-03-17T00:33:41;65.40;;;44.40;;
23434;SDS011;11890;45.380;11.028;2024-03-17T00:36:07;70.40;;;47.28;;
23434;SDS011;11890;45.380;11.028;2024-03-17T00:38:34;72.20;;;46.17;;
23434;SDS011;11890;45.380;11.028;2024-03-17T00:41:02;72.05;;;45.35;;
23434;SDS011;11890;45.380;11.028;2024-03-17T00:43:29;70.90;;;45.33;;
23434;SDS011;11890;45.380;11.028;2024-03-17T00:45:56;63.67;;;43.67;;
23434;SDS011;11890;45.380;11.028;2024-03-17T00:48:23;67.45;;;44.85;;
23434;SDS011;11890;45.380;11.028;2024-03-17T00:50:57;68.70;;;43.50;;
23434;SDS011;11890;45.380;11.028;2024-03-17T00:53:24;67.63;;;44.95;;
23434;SDS011;11890;45.380;11.028;2024-03-17T00:55:52;65.70;;;45.08;;
23434;SDS011;11890;45.380;11.028;2024-03-17T00:58:21;68.75;;;43.92;;
23434;SDS011;11890;45.380;11.028;2024-03-17T01:00:48;72.18;;;44.13;;
23434;SDS011;11890;45.380;11.028;2024-03-17T01:03:15;69.80;;;43.38;;
23434;SDS011;11890;45.380;11.028;2024-03-17T01:05:42;69.20;;;44.10;;
23434;SDS011;11890;45.380;11.028;2024-03-17T01:08:12;63.25;;;43.40;;
23434;SDS011;11890;45.380;11.028;2024-03-17T01:10:39;69.93;;;43.03;;
23434;SDS011;11890;45.380;11.028;2024-03-17T01:13:07;63.70;;;42.45;;
23434;SDS011;11890;45.380;11.028;2024-03-17T01:15:35;67.47;;;41.97;;
23434;SDS011;11890;45.380;11.028;2024-03-17T01:18:03;65.03;;;42.40;;
23434;SDS011;11890;45.380;11.028;2024-03-17T01:20:34;67.15;;;43.20;;
23434;SDS011;11890;45.380;11.028;2024-03-17T01:23:01;69.15;;;43.10;;
23434;SDS011;11890;45.380;11.028;2024-03-17T01:25:28;66.68;;;43.05;;
23434;SDS011;11890;45.380;11.028;2024-03-17T01:27:56;67.20;;;43.75;;
23434;SDS011;11890;45.380;11.028;2024-03-17T01:30:23;67.65;;;41.15;;
23434;SDS011;11890;45.380;11.028;2024-03-17T01:32:50;68.43;;;42.50;;
23434;SDS011;11890;45.380;11.028;2024-03-17T01:35:17;71.35;;;42.83;;
23434;SDS011;11890;45.380;11.028;2024-03-17T01:37:44;63.47;;;40.72;;
23434;SDS011;11890;45.380;11.028;2024-03-17T01:40:11;63.83;;;40.55;;
23434;SDS011;11890;45.380;11.028;2024-03-17T01:42:38;62.97;;;41.72;;
23434;SDS011;11890;45.380;11.028;2024-03-17T01:47:44;60.85;;;40.25;;
23434;SDS011;11890;45.380;11.028;2024-03-17T01:50:11;64.60;;;40.83;;
23434;SDS011;11890;45.380;11.028;2024-03-17T01:52:39;64.80;;;40.35;;
23434;SDS011;11890;45.380;11.028;2024-03-17T01:55:06;62.42;;;39.83;;
23434;SDS011;11890;45.380;11.028;2024-03-17T01:57:33;62.45;;;39.55;;
23434;SDS011;11890;45.380;11.028;2024-03-17T02:00:00;59.45;;;38.65;;
23434;SDS011;11890;45.380;11.028;2024-03-17T02:02:26;58.17;;;37.05;;
23434;SDS011;11890;45.380;11.028;2024-03-17T02:04:53;62.65;;;38.42;;
23434;SDS011;11890;45.380;11.028;2024-03-17T02:07:20;55.88;;;37.45;;
23434;SDS011;11890;45.380;11.028;2024-03-17T02:09:47;56.33;;;37.47;;
23434;SDS011;11890;45.380;11.028;2024-03-17T02:12:14;63.15;;;38.83;;
23434;SDS011;11890;45.380;11.028;2024-03-17T02:14:40;58.38;;;37.97;;
23434;SDS011;11890;45.380;11.028;2024-03-17T02:17:07;57.47;;;36.60;;
23434;SDS011;11890;45.380;11.028;2024-03-17T02:19:34;58.20;;;36.95;;
23434;SDS011;11890;45.380;11.028;2024-03-17T02:22:01;58.75;;;36.50;;
23434;SDS011;11890;45.380;11.028;2024-03-17T02:24:28;53.45;;;35.58;;
23434;SDS011;11890;45.380;11.028;2024-03-17T02:26:54;51.17;;;34.55;;
23434;SDS011;11890;45.380;11.028;2024-03-17T02:29:21;54.33;;;34.75;;
23434;SDS011;11890;45.380;11.028;2024-03-17T02:31:48;56.45;;;34.85;;
23434;SDS011;11890;45.380;11.028;2024-03-17T02:34:15;52.40;;;34.58;;
23434;SDS011;11890;45.380;11.028;2024-03-17T02:36:41;52.63;;;34.85;;
23434;SDS011;11890;45.380;11.028;2024-03-17T02:39:08;54.13;;;34.90;;
23434;SDS011;11890;45.380;11.028;2024-03-17T02:41:53;57.00;;;36.03;;
23434;SDS011;11890;45.380;11.028;2024-03-17T02:44:20;51.88;;;33.65;;
23434;SDS011;11890;45.380;11.028;2024-03-17T02:46:47;48.83;;;32.97;;
23434;SDS011;11890;45.380;11.028;2024-03-17T02:49:13;53.30;;;34.20;;
23434;SDS011;11890;45.380;11.028;2024-03-17T02:51:43;53.63;;;33.70;;
23434;SDS011;11890;45.380;11.028;2024-03-17T02:54:10;52.33;;;34.75;;
23434;SDS011;11890;45.380;11.028;2024-03-17T02:56:37;44.97;;;32.40;;
23434;SDS011;11890;45.380;11.028;2024-03-17T02:59:04;47.38;;;31.17;;
23434;SDS011;11890;45.380;11.028;2024-03-17T03:01:30;56.35;;;34.55;;
23434;SDS011;11890;45.380;11.028;2024-03-17T03:03:57;53.20;;;33.97;;
23434;SDS011;11890;45.380;11.028;2024-03-17T03:06:24;56.25;;;34.85;;
23434;SDS011;11890;45.380;11.028;2024-03-17T03:08:51;51.25;;;34.45;;
23434;SDS011;11890;45.380;11.028;2024-03-17T03:11:17;52.35;;;33.95;;
23434;SDS011;11890;45.380;11.028;2024-03-17T03:13:44;48.38;;;33.67;;
23434;SDS011;11890;45.380;11.028;2024-03-17T03:16:11;53.70;;;33.78;;
23434;SDS011;11890;45.380;11.028;2024-03-17T03:18:39;52.65;;;34.83;;
23434;SDS011;11890;45.380;11.028;2024-03-17T03:21:08;54.00;;;33.72;;
23434;SDS011;11890;45.380;11.028;2024-03-17T03:23:34;49.13;;;31.83;;
23434;SDS011;11890;45.380;11.028;2024-03-17T03:26:02;55.85;;;33.88;;
23434;SDS011;11890;45.380;11.028;2024-03-17T03:28:33;54.10;;;34.63;;
23434;SDS011;11890;45.380;11.028;2024-03-17T03:31:00;48.55;;;32.75;;
23434;SDS011;11890;45.380;11.028;2024-03-17T03:33:27;53.50;;;33.70;;
23434;SDS011;11890;45.380;11.028;2024-03-17T03:35:54;51.05;;;32.67;;
23434;SDS011;11890;45.380;11.028;2024-03-17T03:38:21;55.38;;;34.40;;
23434;SDS011;11890;45.380;11.028;2024-03-17T03:40:48;55.00;;;33.75;;
23434;SDS011;11890;45.380;11.028;2024-03-17T03:43:15;46.22;;;31.05;;
23434;SDS011;11890;45.380;11.028;2024-03-17T03:45:43;51.17;;;32.28;;
23434;SDS011;11890;45.380;11.028;2024-03-17T03:48:11;54.35;;;34.60;;
23434;SDS011;11890;45.380;11.028;2024-03-17T03:50:38;52.35;;;33.75;;
23434;SDS011;11890;45.380;11.028;2024-03-17T03:53:05;49.63;;;32.45;;
23434;SDS011;11890;45.380;11.028;2024-03-17T03:55:31;51.10;;;32.05;;
23434;SDS011;11890;45.380;11.028;2024-03-17T03:57:58;48.20;;;32.08;;
23434;SDS011;11890;45.380;11.028;2024-03-17T04:00:25;54.22;;;33.97;;
23434;SDS011;11890;45.380;11.028;2024-03-17T04:02:55;53.97;;;33.15;;
23434;SDS011;11890;45.380;11.028;2024-03-17T04:05:22;56.67;;;32.75;;
23434;SDS011;11890;45.380;11.028;2024-03-17T04:07:49;54.03;;;35.35;;
23434;SDS011;11890;45.380;11.028;2024-03-17T04:10:16;58.50;;;38.22;;
23434;SDS011;11890;45.380;11.028;2024-03-17T04:12:46;62.38;;;37.50;;
23434;SDS011;11890;45.380;11.028;2024-03-17T04:15:13;57.72;;;38.22;;
23434;SDS011;11890;45.380;11.028;2024-03-17T04:17:40;58.65;;;36.63;;
23434;SDS011;11890;45.380;11.028;2024-03-17T04:20:08;52.00;;;31.90;;
23434;SDS011;11890;45.380;11.028;2024-03-17T04:22:36;51.42;;;33.35;;
23434;SDS011;11890;45.380;11.028;2024-03-17T04:25:02;48.58;;;32.85;;
23434;SDS011;11890;45.380;11.028;2024-03-17T04:27:29;53.40;;;32.90;;
23434;SDS011;11890;45.380;11.028;2024-03-17T04:29:57;51.67;;;33.67;;
23434;SDS011;11890;45.380;11.028;2024-03-17T04:32:25;58.15;;;36.78;;
23434;SDS011;11890;45.380;11.028;2024-03-17T04:34:56;59.38;;;37.83;;
23434;SDS011;11890;45.380;11.028;2024-03-17T04:37:23;55.30;;;34.88;;
23434;SDS011;11890;45.380;11.028;2024-03-17T04:39:50;55.50;;;34.40;;
23434;SDS011;11890;45.380;11.028;2024-03-17T04:42:17;51.42;;;34.25;;
23434;SDS011;11890;45.380;11.028;2024-03-17T04:44:45;51.90;;;33.15;;
23434;SDS011;11890;45.380;11.028;2024-03-17T04:47:12;46.25;;;31.30;;
23434;SDS011;11890;45.380;11.028;2024-03-17T04:52:05;58.35;;;37.08;;
23434;SDS011;11890;45.380;11.028;2024-03-17T04:54:35;62.17;;;36.97;;
23434;SDS011;11890;45.380;11.028;2024-03-17T04:57:02;55.08;;;36.35;;
23434;SDS011;11890;45.380;11.028;2024-03-17T04:59:33;59.60;;;38.58;;
23434;SDS011;11890;45.380;11.028;2024-03-17T05:02:00;53.03;;;35.67;;
23434;SDS011;11890;45.380;11.028;2024-03-17T05:04:26;59.95;;;37.17;;
23434;SDS011;11890;45.380;11.028;2024-03-17T05:06:53;57.05;;;36.45;;
23434;SDS011;11890;45.380;11.028;2024-03-17T05:09:20;53.95;;;34.75;;
23434;SDS011;11890;45.380;11.028;2024-03-17T05:11:47;55.75;;;34.00;;
23434;SDS011;11890;45.380;11.028;2024-03-17T05:14:13;58.45;;;33.85;;
23434;SDS011;11890;45.380;11.028;2024-03-17T05:16:40;50.58;;;32.75;;
23434;SDS011;11890;45.380;11.028;2024-03-17T05:19:07;54.08;;;34.40;;
23434;SDS011;11890;45.380;11.028;2024-03-17T05:21:35;51.47;;;33.50;;
23434;SDS011;11890;45.380;11.028;2024-03-17T05:24:02;56.85;;;36.28;;
23434;SDS011;11890;45.380;11.028;2024-03-17T05:26:29;57.03;;;34.38;;
23434;SDS011;11890;45.380;11.028;2024-03-17T05:28:57;55.42;;;34.13;;
23434;SDS011;11890;45.380;11.028;2024-03-17T05:31:24;53.33;;;33.30;;
23434;SDS011;11890;45.380;11.028;2024-03-17T05:33:50;53.90;;;34.90;;
23434;SDS011;11890;45.380;11.028;2024-03-17T05:36:17;56.85;;;34.65;;
23434;SDS011;11890;45.380;11.028;2024-03-17T05:38:47;53.55;;;33.72;;
23434;SDS011;11890;45.380;11.028;2024-03-17T05:41:14;52.38;;;34.47;;
23434;SDS011;11890;45.380;11.028;2024-03-17T05:43:41;52.85;;;32.67;;
23434;SDS011;11890;45.380;11.028;2024-03-17T05:46:09;51.58;;;34.13;;
23434;SDS011;11890;45.380;11.028;2024-03-17T05:48:36;46.83;;;31.65;;
23434;SDS011;11890;45.380;11.028;2024-03-17T05:51:08;51.50;;;31.85;;
23434;SDS011;11890;45.380;11.028;2024-03-17T05:53:36;49.33;;;32.72;;
23434;SDS011;11890;45.380;11.028;2024-03-17T05:56:06;54.92;;;33.95;;
23434;SDS011;11890;45.380;11.028;2024-03-17T05:58:35;53.47;;;34.53;;
23434;SDS011;11890;45.380;11.028;2024-03-17T06:01:03;57.55;;;36.13;;
23434;SDS011;11890;45.380;11.028;2024-03-17T06:03:30;55.75;;;35.28;;
23434;SDS011;11890;45.380;11.028;2024-03-17T06:05:58;48.03;;;33.53;;
23434;SDS011;11890;45.380;11.028;2024-03-17T06:08:25;55.00;;;34.72;;
23434;SDS011;11890;45.380;11.028;2024-03-17T06:10:52;53.40;;;35.00;;
23434;SDS011;11890;45.380;11.028;2024-03-17T06:13:19;58.38;;;34.88;;
23434;SDS011;11890;45.380;11.028;2024-03-17T06:15:46;58.58;;;35.70;;
23434;SDS011;11890;45.380;11.028;2024-03-17T06:18:13;53.63;;;34.85;;
23434;SDS011;11890;45.380;11.028;2024-03-17T06:20:40;48.70;;;32.97;;
23434;SDS011;11890;45.380;11.028;2024-03-17T06:23:10;57.28;;;33.88;;
23434;SDS011;11890;45.380;11.028;2024-03-17T06:25:41;54.03;;;34.35;;
23434;SDS011;11890;45.380;11.028;2024-03-17T06:28:09;57.10;;;35.40;;
23434;SDS011;11890;45.380;11.028;2024-03-17T06:30:46;60.38;;;34.95;;
23434;SDS011;11890;45.380;11.028;2024-03-17T06:33:15;54.28;;;34.53;;
23434;SDS011;11890;45.380;11.028;2024-03-17T06:35:46;57.38;;;33.58;;
23434;SDS011;11890;45.380;11.028;2024-03-17T06:38:16;50.25;;;33.38;;
23434;SDS011;11890;45.380;11.028;2024-03-17T06:40:50;49.15;;;32.90;;
23434;SDS011;11890;45.380;11.028;2024-03-17T06:43:20;49.00;;;32.58;;
23434;SDS011;11890;45.380;11.028;2024-03-17T06:45:54;47.55;;;29.80;;
23434;SDS011;11890;45.380;11.028;2024-03-17T06:48:21;49.15;;;32.00;;
23434;SDS011;11890;45.380;11.028;2024-03-17T06:50:50;45.53;;;29.85;;
23434;SDS011;11890;45.380;11.028;2024-03-17T06:53:18;47.97;;;30.10;;
23434;SDS011;11890;45.380;11.028;2024-03-17T06:56:00;46.60;;;30.55;;
23434;SDS011;11890;45.380;11.028;2024-03-17T06:58:27;51.88;;;32.00;;
23434;SDS011;11890;45.380;11.028;2024-03-17T07:00:56;47.65;;;31.27;;
23434;SDS011;11890;45.380;11.028;2024-03-17T07:03:25;43.40;;;28.45;;
23434;SDS011;11890;45.380;11.028;2024-03-17T07:05:55;46.80;;;29.45;;
23434;SDS011;11890;45.380;11.028;2024-03-17T07:08:23;40.60;;;28.05;;
23434;SDS011;11890;45.380;11.028;2024-03-17T07:13:23;41.60;;;27.70;;
23434;SDS011;11890;45.380;11.028;2024-03-17T07:15:50;44.40;;;27.60;;
23434;SDS011;11890;45.380;11.028;2024-03-17T07:18:19;46.30;;;28.95;;
23434;SDS011;11890;45.380;11.028;2024-03-17T07:20:49;43.30;;;28.05;;
23434;SDS011;11890;45.380;11.028;2024-03-17T07:23:16;42.20;;;27.20;;
23434;SDS011;11890;45.380;11.028;2024-03-17T07:25:51;47.47;;;27.65;;
23434;SDS011;11890;45.380;11.028;2024-03-17T07:28:24;46.80;;;27.65;;
23434;SDS011;11890;45.380;11.028;2024-03-17T07:31:24;43.67;;;27.65;;
23434;SDS011;11890;45.380;11.028;2024-03-17T07:33:51;43.33;;;27.63;;
23434;SDS011;11890;45.380;11.028;2024-03-17T07:36:19;45.83;;;28.10;;
23434;SDS011;11890;45.380;11.028;2024-03-17T07:38:50;42.83;;;27.60;;
23434;SDS011;11890;45.380;11.028;2024-03-17T07:41:18;48.92;;;30.98;;
23434;SDS011;11890;45.380;11.028;2024-03-17T07:43:48;49.22;;;30.25;;
23434;SDS011;11890;45.380;11.028;2024-03-17T07:46:16;39.88;;;27.23;;
23434;SDS011;11890;45.380;11.028;2024-03-17T07:48:46;45.20;;;28.17;;
23434;SDS011;11890;45.380;11.028;2024-03-17T07:51:16;42.67;;;27.17;;
23434;SDS011;11890;45.380;11.028;2024-03-17T07:53:45;41.03;;;28.65;;
23434;SDS011;11890;45.380;11.028;2024-03-17T07:56:16;43.58;;;28.05;;
23434;SDS011;11890;45.380;11.028;2024-03-17T07:58:46;46.83;;;31.40;;
23434;SDS011;11890;45.380;11.028;2024-03-17T08:01:17;50.80;;;30.67;;
23434;SDS011;11890;45.380;11.028;2024-03-17T08:03:47;50.58;;;32.97;;
23434;SDS011;11890;45.380;11.028;2024-03-17T08:06:22;49.70;;;32.88;;
23434;SDS011;11890;45.380;11.028;2024-03-17T08:08:50;54.97;;;34.35;;
23434;SDS011;11890;45.380;11.028;2024-03-17T08:11:17;56.35;;;36.38;;
23434;SDS011;11890;45.380;11.028;2024-03-17T08:13:47;54.03;;;34.55;;
23434;SDS011;11890;45.380;11.028;2024-03-17T08:16:15;54.85;;;36.33;;
23434;SDS011;11890;45.380;11.028;2024-03-17T08:18:43;53.92;;;35.38;;
23434;SDS011;11890;45.380;11.028;2024-03-17T08:21:09;64.30;;;38.13;;
23434;SDS011;11890;45.380;11.028;2024-03-17T08:23:36;57.13;;;38.97;;
23434;SDS011;11890;45.380;11.028;2024-03-17T08:26:11;55.53;;;36.38;;
23434;SDS011;11890;45.380;11.028;2024-03-17T08:28:39;59.78;;;37.72;;
23434;SDS011;11890;45.380;11.028;2024-03-17T08:31:06;60.55;;;39.03;;
23434;SDS011;11890;45.380;11.028;2024-03-17T08:33:33;62.20;;;38.72;;
23434;SDS011;11890;45.380;11.028;2024-03-17T08:36:00;62.25;;;39.35;;
23434;SDS011;11890;45.380;11.028;2024-03-17T08:38:28;64.13;;;40.75;;
23434;SDS011;11890;45.380;11.028;2024-03-17T08:41:02;66.85;;;41.67;;
23434;SDS011;11890;45.380;11.028;2024-03-17T08:43:30;65.10;;;42.35;;
23434;SDS011;11890;45.380;11.028;2024-03-17T08:46:04;64.38;;;42.08;;
23434;SDS011;11890;45.380;11.028;2024-03-17T08:48:34;65.38;;;42.15;;
23434;SDS011;11890;45.380;11.028;2024-03-17T08:51:05;60.72;;;42.38;;
23434;SDS011;11890;45.380;11.028;2024-03-17T08:53:32;66.78;;;42.10;;
23434;SDS011;11890;45.380;11.028;2024-03-17T08:55:59;62.28;;;41.90;;
23434;SDS011;11890;45.380;11.028;2024-03-17T08:58:27;62.72;;;42.97;;
23434;SDS011;11890;45.380;11.028;2024-03-17T09:00:54;66.75;;;42.63;;
23434;SDS011;11890;45.380;11.028;2024-03-17T09:03:22;71.65;;;45.30;;
23434;SDS011;11890;45.380;11.028;2024-03-17T09:05:53;68.97;;;46.85;;
23434;SDS011;11890;45.380;11.028;2024-03-17T09:08:21;68.28;;;45.15;;
23434;SDS011;11890;45.380;11.028;2024-03-17T09:10:52;70.55;;;45.85;;
23434;SDS011;11890;45.380;11.028;2024-03-17T09:13:21;69.53;;;45.13;;
23434;SDS011;11890;45.380;11.028;2024-03-17T09:15:56;66.40;;;43.47;;
23434;SDS011;11890;45.380;11.028;2024-03-17T09:18:28;68.82;;;45.08;;
23434;SDS011;11890;45.380;11.028;2024-03-17T09:21:06;69.72;;;44.58;;
23434;SDS011;11890;45.380;11.028;2024-03-17T09:23:42;65.13;;;43.45;;
23434;SDS011;11890;45.380;11.028;2024-03-17T09:26:16;68.88;;;45.72;;
23434;SDS011;11890;45.380;11.028;2024-03-17T09:28:50;65.28;;;43.78;;
23434;SDS011;11890;45.380;11.028;2024-03-17T09:31:18;66.35;;;46.33;;
23434;SDS011;11890;45.380;11.028;2024-03-17T09:33:45;65.10;;;42.42;;
23434;SDS011;11890;45.380;11.028;2024-03-17T09:36:15;67.88;;;46.25;;
23434;SDS011;11890;45.380;11.028;2024-03-17T09:38:43;68.30;;;44.88;;
23434;SDS011;11890;45.380;11.028;2024-03-17T09:41:24;69.32;;;45.45;;
23434;SDS011;11890;45.380;11.028;2024-03-17T09:43:56;69.78;;;45.67;;
23434;SDS011;11890;45.380;11.028;2024-03-17T09:46:23;64.53;;;44.28;;
23434;SDS011;11890;45.380;11.028;2024-03-17T09:48:53;61.72;;;42.60;;
23434;SDS011;11890;45.380;11.028;2024-03-17T09:51:25;62.47;;;43.50;;
23434;SDS011;11890;45.380;11.028;2024-03-17T09:53:52;58.53;;;38.53;;
23434;SDS011;11890;45.380;11.028;2024-03-17T09:56:22;54.33;;;37.10;;
23434;SDS011;11890;45.380;11.028;2024-03-17T09:58:50;57.67;;;38.90;;
23434;SDS011;11890;45.380;11.028;2024-03-17T10:01:17;56.95;;;39.70;;
23434;SDS011;11890;45.380;11.028;2024-03-17T10:03:49;65.78;;;45.60;;
23434;SDS011;11890;45.380;11.028;2024-03-17T10:06:25;67.15;;;44.42;;
23434;SDS011;11890;45.380;11.028;2024-03-17T10:08:58;58.75;;;38.28;;
23434;SDS011;11890;45.380;11.028;2024-03-17T10:11:31;55.55;;;39.03;;
23434;SDS011;11890;45.380;11.028;2024-03-17T10:14:07;59.88;;;39.25;;
23434;SDS011;11890;45.380;11.028;2024-03-17T10:16:37;54.95;;;39.83;;
23434;SDS011;11890;45.380;11.028;2024-03-17T10:19:14;56.45;;;39.85;;
23434;SDS011;11890;45.380;11.028;2024-03-17T10:24:21;54.08;;;38.13;;
23434;SDS011;11890;45.380;11.028;2024-03-17T10:26:49;58.92;;;40.63;;
23434;SDS011;11890;45.380;11.028;2024-03-17T10:31:55;49.47;;;36.10;;
23434;SDS011;11890;45.380;11.028;2024-03-17T10:34:23;55.17;;;38.97;;
23434;SDS011;11890;45.380;11.028;2024-03-17T10:36:51;54.80;;;38.03;;
23434;SDS011;11890;45.380;11.028;2024-03-17T10:39:25;44.95;;;33.42;;
23434;SDS011;11890;45.380;11.028;2024-03-17T10:42:01;43.28;;;31.38;;
23434;SDS011;11890;45.380;11.028;2024-03-17T10:44:32;41.03;;;28.40;;
23434;SDS011;11890;45.380;11.028;2024-03-17T10:46:59;45.88;;;29.42;;
23434;SDS011;11890;45.380;11.028;2024-03-17T10:52:15;37.75;;;28.48;;
23434;SDS011;11890;45.380;11.028;2024-03-17T10:54:48;47.78;;;32.97;;
23434;SDS011;11890;45.380;11.028;2024-03-17T11:00:05;47.22;;;31.90;;
23434;SDS011;11890;45.380;11.028;2024-03-17T11:02:37;48.10;;;32.05;;
23434;SDS011;11890;45.380;11.028;2024-03-17T11:05:11;42.45;;;32.67;;
23434;SDS011;11890;45.380;11.028;2024-03-17T11:07:43;46.22;;;32.65;;
23434;SDS011;11890;45.380;11.028;2024-03-17T11:10:19;43.05;;;31.30;;
23434;SDS011;11890;45.380;11.028;2024-03-17T11:12:48;40.70;;;29.23;;
23434;SDS011;11890;45.380;11.028;2024-03-17T11:18:38;27.50;;;22.05;;
23434;SDS011;11890;45.380;11.028;2024-03-17T11:24:43;32.45;;;22.08;;
23434;SDS011;11890;45.380;11.028;2024-03-17T11:27:52;30.83;;;21.98;;
23434;SDS011;11890;45.380;11.028;2024-03-17T11:30:41;41.08;;;20.98;;
23434;SDS011;11890;45.380;11.028;2024-03-17T11:32:51;24.45;;;19.48;;
23434;SDS011;11890;45.380;11.028;2024-03-17T11:35:22;27.92;;;19.52;;
23434;SDS011;11890;45.380;11.028;2024-03-17T11:37:50;22.17;;;17.15;;
23434;SDS011;11890;45.380;11.028;2024-03-17T11:40:25;21.15;;;14.63;;
23434;SDS011;11890;45.380;11.028;2024-03-17T11:43:01;22.17;;;17.10;;
23434;SDS011;11890;45.380;11.028;2024-03-17T11:45:33;22.17;;;15.38;;
23434;SDS011;11890;45.380;11.028;2024-03-17T11:48:04;17.33;;;14.63;;
23434;SDS011;11890;45.380;11.028;2024-03-17T11:50:32;18.30;;;14.52;;
23434;SDS011;11890;45.380;11.028;2024-03-17T11:53:00;21.35;;;15.13;;
23434;SDS011;11890;45.380;11.028;2024-03-17T11:55:31;19.00;;;15.10;;
23434;SDS011;11890;45.380;11.028;2024-03-17T11:57:59;20.92;;;16.90;;
23434;SDS011;11890;45.380;11.028;2024-03-17T12:00:26;22.15;;;15.23;;
23434;SDS011;11890;45.380;11.028;2024-03-17T12:02:56;20.40;;;14.63;;
23434;SDS011;11890;45.380;11.028;2024-03-17T12:05:25;21.10;;;15.43;;
23434;SDS011;11890;45.380;11.028;2024-03-17T12:07:56;20.30;;;16.50;;
23434;SDS011;11890;45.380;11.028;2024-03-17T12:10:24;22.88;;;17.77;;
23434;SDS011;11890;45.380;11.028;2024-03-17T12:12:51;21.50;;;15.77;;
23434;SDS011;11890;45.380;11.028;2024-03-17T12:15:21;19.08;;;14.88;;
23434;SDS011;11890;45.380;11.028;2024-03-17T12:17:52;21.35;;;14.48;;
23434;SDS011;11890;45.380;11.028;2024-03-17T12:20:19;20.95;;;14.52;;
23434;SDS011;11890;45.380;11.028;2024-03-17T12:22:46;21.85;;;14.77;;
23434;SDS011;11890;45.380;11.028;2024-03-17T12:25:17;20.67;;;15.82;;
23434;SDS011;11890;45.380;11.028;2024-03-17T12:27:45;21.40;;;15.93;;
23434;SDS011;11890;45.380;11.028;2024-03-17T12:30:13;21.08;;;15.70;;
23434;SDS011;11890;45.380;11.028;2024-03-17T12:32:44;23.38;;;17.75;;
23434;SDS011;11890;45.380;11.028;2024-03-17T12:35:14;23.52;;;18.35;;
23434;SDS011;11890;45.380;11.028;2024-03-17T12:37:44;26.50;;;19.92;;
23434;SDS011;11890;45.380;11.028;2024-03-17T12:40:18;29.30;;;19.75;;
23434;SDS011;11890;45.380;11.028;2024-03-17T12:42:51;25.27;;;19.33;;
23434;SDS011;11890;45.380;11.028;2024-03-17T12:45:24;24.00;;;18.13;;
23434;SDS011;11890;45.380;11.028;2024-03-17T12:47:52;25.15;;;17.92;;
23434;SDS011;11890;45.380;11.028;2024-03-17T12:50:20;25.33;;;19.30;;
23434;SDS011;11890;45.380;11.028;2024-03-17T12:52:53;24.23;;;19.25;;
23434;SDS011;11890;45.380;11.028;2024-03-17T12:55:21;26.50;;;19.40;;
23434;SDS011;11890;45.380;11.028;2024-03-17T12:58:08;28.33;;;20.40;;
23434;SDS011;11890;45.380;11.028;2024-03-17T13:01:05;27.25;;;19.88;;
23434;SDS011;11890;45.380;11.028;2024-03-17T13:03:33;27.90;;;19.85;;
23434;SDS011;11890;45.380;11.028;2024-03-17T13:06:01;24.30;;;18.10;;
23434;SDS011;11890;45.380;11.028;2024-03-17T13:08:33;27.92;;;19.00;;
23434;SDS011;11890;45.380;11.028;2024-03-17T13:11:01;25.02;;;19.48;;
23434;SDS011;11890;45.380;11.028;2024-03-17T13:13:32;27.80;;;19.40;;
23434;SDS011;11890;45.380;11.028;2024-03-17T13:16:00;26.25;;;17.95;;
23434;SDS011;11890;45.380;11.028;2024-03-17T13:18:30;26.60;;;16.80;;
23434;SDS011;11890;45.380;11.028;2024-03-17T13:21:00;24.02;;;17.08;;
23434;SDS011;11890;45.380;11.028;2024-03-17T13:23:27;21.05;;;16.55;;
23434;SDS011;11890;45.380;11.028;2024-03-17T13:25:58;22.95;;;16.88;;
23434;SDS011;11890;45.380;11.028;2024-03-17T13:28:29;22.90;;;16.50;;
23434;SDS011;11890;45.380;11.028;2024-03-17T13:30:58;25.02;;;16.80;;
23434;SDS011;11890;45.380;11.028;2024-03-17T13:33:27;23.98;;;18.40;;
23434;SDS011;11890;45.380;11.028;2024-03-17T13:35:56;23.88;;;16.83;;
23434;SDS011;11890;45.380;11.028;2024-03-17T13:38:26;29.75;;;19.08;;
23434;SDS011;11890;45.380;11.028;2024-03-17T13:40:55;25.05;;;18.42;;
23434;SDS011;11890;45.380;11.028;2024-03-17T13:43:23;27.48;;;19.27;;
23434;SDS011;11890;45.380;11.028;2024-03-17T13:45:52;27.88;;;19.63;;
23434;SDS011;11890;45.380;11.028;2024-03-17T13:52:40;25.38;;;19.30;;
23434;SDS011;11890;45.380;11.028;2024-03-17T13:55:25;26.75;;;19.27;;
23434;SDS011;11890;45.380;11.028;2024-03-17T13:57:54;25.55;;;19.42;;
23434;SDS011;11890;45.380;11.028;2024-03-17T14:00:21;26.05;;;18.83;;
23434;SDS011;11890;45.380;11.028;2024-03-17T14:02:49;25.50;;;18.55;;
23434;SDS011;11890;45.380;11.028;2024-03-17T14:05:20;27.52;;;19.35;;
23434;SDS011;11890;45.380;11.028;2024-03-17T14:07:54;24.63;;;18.80;;
23434;SDS011;11890;45.380;11.028;2024-03-17T14:10:23;22.92;;;18.40;;
23434;SDS011;11890;45.380;11.028;2024-03-17T14:12:50;23.55;;;18.30;;
23434;SDS011;11890;45.380;11.028;2024-03-17T14:15:20;28.20;;;19.33;;
23434;SDS011;11890;45.380;11.028;2024-03-17T14:17:47;25.15;;;19.08;;
23434;SDS011;11890;45.380;11.028;2024-03-17T14:20:18;22.27;;;18.17;;
23434;SDS011;11890;45.380;11.028;2024-03-17T14:22:46;26.67;;;18.33;;
23434;SDS011;11890;45.380;11.028;2024-03-17T14:25:19;23.67;;;18.65;;
23434;SDS011;11890;45.380;11.028;2024-03-17T14:27:47;27.88;;;18.63;;
23434;SDS011;11890;45.380;11.028;2024-03-17T14:30:16;25.27;;;18.08;;
23434;SDS011;11890;45.380;11.028;2024-03-17T14:32:43;24.85;;;17.77;;
23434;SDS011;11890;45.380;11.028;2024-03-17T14:35:12;25.40;;;19.73;;
23434;SDS011;11890;45.380;11.028;2024-03-17T14:37:39;25.02;;;18.42;;
23434;SDS011;11890;45.380;11.028;2024-03-17T14:40:08;23.10;;;17.63;;
23434;SDS011;11890;45.380;11.028;2024-03-17T14:42:45;24.95;;;18.17;;
23434;SDS011;11890;45.380;11.028;2024-03-17T14:45:12;25.05;;;17.98;;
23434;SDS011;11890;45.380;11.028;2024-03-17T14:47:39;25.75;;;18.00;;
23434;SDS011;11890;45.380;11.028;2024-03-17T14:50:07;25.75;;;17.88;;